ANZ102 YSSY-NZAA
Flight info
| Callsign | ANZ102 |
|---|---|
| Flight time | 2h 43m |
| Altitude | 39000 |
| Route | EVONN L521 LUNBI |
| Aircraft | B772/H-SDE2E3FGHIJ5LORVWXY/LB1D1 |
Departure
| Time | 2026-04-23 14:03 |
|---|---|
| Airport | Sydney Kingsford Smith International Airport (YSSY) |
Arrival
| Time | 2026-04-23 16:47 |
|---|---|
| Airport | Auckland International Airport (NZAA) |
| Time | Latitude | Longitude | Altitude | Speed | Heading |
|---|---|---|---|---|---|
| 2026-04-23 13:44 | -33.93403 | 151.16774 | 34 ft | 0 kts | 258° |
| 2026-04-23 13:54 | -33.93402 | 151.16777 | 34 ft | 2 kts | 258° |
| 2026-04-23 13:54 | -33.93399 | 151.16795 | 34 ft | 2 kts | 258° |
| 2026-04-23 13:54 | -33.93396 | 151.16812 | 34 ft | 2 kts | 258° |
| 2026-04-23 13:54 | -33.93393 | 151.16830 | 34 ft | 2 kts | 258° |
| 2026-04-23 13:55 | -33.93390 | 151.16847 | 34 ft | 2 kts | 258° |
| 2026-04-23 13:55 | -33.93387 | 151.16866 | 34 ft | 2 kts | 274° |
| 2026-04-23 13:55 | -33.93391 | 151.16882 | 34 ft | 2 kts | 308° |
| 2026-04-23 13:55 | -33.93402 | 151.16893 | 34 ft | 2 kts | 337° |
| 2026-04-23 13:56 | -33.93409 | 151.16896 | 34 ft | 1 kts | 350° |
| 2026-04-23 13:56 | -33.93412 | 151.16898 | 34 ft | 0 kts | 349° |
| 2026-04-23 13:57 | -33.93408 | 151.16896 | 34 ft | 2 kts | 347° |
| 2026-04-23 13:57 | -33.93386 | 151.16890 | 34 ft | 2 kts | 347° |
| 2026-04-23 13:58 | -33.93359 | 151.16887 | 34 ft | 3 kts | 4° |
| 2026-04-23 13:58 | -33.93337 | 151.16893 | 34 ft | 1 kts | 17° |
| 2026-04-23 13:58 | -33.93320 | 151.16902 | 34 ft | 4 kts | 26° |
| 2026-04-23 13:58 | -33.93286 | 151.16922 | 34 ft | 6 kts | 28° |
| 2026-04-23 13:59 | -33.93261 | 151.16937 | 34 ft | 3 kts | 28° |
| 2026-04-23 13:59 | -33.93242 | 151.16950 | 35 ft | 3 kts | 20° |
| 2026-04-23 13:59 | -33.93212 | 151.16950 | 35 ft | 3 kts | 352° |
| 2026-04-23 13:59 | -33.93175 | 151.16940 | 35 ft | 6 kts | 346° |
| 2026-04-23 14:00 | -33.93136 | 151.16930 | 34 ft | 10 kts | 347° |
| 2026-04-23 14:00 | -33.93048 | 151.16907 | 34 ft | 5 kts | 347° |
| 2026-04-23 14:00 | -33.93022 | 151.16907 | 34 ft | 2 kts | 15° |
| 2026-04-23 14:00 | -33.93006 | 151.16919 | 34 ft | 3 kts | 39° |
| 2026-04-23 14:01 | -33.92990 | 151.16946 | 34 ft | 4 kts | 63° |
| 2026-04-23 14:01 | -33.92979 | 151.16981 | 34 ft | 4 kts | 75° |
| 2026-04-23 14:01 | -33.92968 | 151.17036 | 34 ft | 9 kts | 77° |
| 2026-04-23 14:01 | -33.92960 | 151.17099 | 34 ft | 5 kts | 96° |
| 2026-04-23 14:02 | -33.92973 | 151.17137 | 34 ft | 5 kts | 120° |
| 2026-04-23 14:02 | -33.92995 | 151.17168 | 34 ft | 4 kts | 143° |
| 2026-04-23 14:02 | -33.93028 | 151.17183 | 34 ft | 5 kts | 166° |
| 2026-04-23 14:02 | -33.93030 | 151.17184 | 34 ft | 1 kts | 167° |
| 2026-04-23 14:03 | -33.93074 | 151.17195 | 34 ft | 14 kts | 168° |
| 2026-04-23 14:03 | -33.93433 | 151.17288 | 34 ft | 92 kts | 168° |
| 2026-04-23 14:03 | -33.94308 | 151.17516 | 122 ft | 154 kts | 167° |
| 2026-04-23 14:03 | -33.95305 | 151.17767 | 1020 ft | 145 kts | 165° |
| 2026-04-23 14:04 | -33.96348 | 151.17868 | 1327 ft | 161 kts | 182° |
| 2026-04-23 14:04 | -33.97535 | 151.17723 | 1451 ft | 179 kts | 179° |
| 2026-04-23 14:04 | -33.98811 | 151.17673 | 1762 ft | 188 kts | 178° |
| 2026-04-23 14:04 | -34.00193 | 151.17609 | 1999 ft | 203 kts | 178° |
| 2026-04-23 14:05 | -34.01637 | 151.17555 | 2363 ft | 211 kts | 178° |
| 2026-04-23 14:05 | -34.03085 | 151.17705 | 2882 ft | 208 kts | 160° |
| 2026-04-23 14:05 | -34.04301 | 151.18549 | 3357 ft | 203 kts | 128° |
| 2026-04-23 14:05 | -34.04852 | 151.20062 | 3831 ft | 201 kts | 98° |
| 2026-04-23 14:06 | -34.05081 | 151.21774 | 4024 ft | 219 kts | 102° |
| 2026-04-23 14:06 | -34.05440 | 151.23654 | 4201 ft | 238 kts | 102° |
| 2026-04-23 14:06 | -34.05793 | 151.25652 | 4560 ft | 248 kts | 102° |
| 2026-04-23 14:06 | -34.06160 | 151.27669 | 5180 ft | 247 kts | 102° |
| 2026-04-23 14:07 | -34.06521 | 151.29677 | 5821 ft | 246 kts | 102° |
| 2026-04-23 14:07 | -34.07252 | 151.33733 | 6889 ft | 251 kts | 102° |
| 2026-04-23 14:07 | -34.07619 | 151.35777 | 7419 ft | 253 kts | 102° |
| 2026-04-23 14:08 | -34.07999 | 151.37894 | 8131 ft | 266 kts | 103° |
| 2026-04-23 14:08 | -34.08378 | 151.40010 | 9331 ft | 254 kts | 102° |
| 2026-04-23 14:08 | -34.08747 | 151.42062 | 10016 ft | 256 kts | 103° |
| 2026-04-23 14:08 | -34.09131 | 151.44208 | 10561 ft | 264 kts | 103° |
| 2026-04-23 14:09 | -34.09524 | 151.46411 | 10927 ft | 279 kts | 103° |
| 2026-04-23 14:09 | -34.09949 | 151.48787 | 11219 ft | 296 kts | 103° |
| 2026-04-23 14:09 | -34.10391 | 151.51257 | 11587 ft | 311 kts | 103° |
| 2026-04-23 14:09 | -34.10852 | 151.53847 | 12017 ft | 322 kts | 103° |
| 2026-04-23 14:10 | -34.11332 | 151.56540 | 12516 ft | 331 kts | 103° |
| 2026-04-23 14:10 | -34.11815 | 151.59264 | 13049 ft | 339 kts | 103° |
| 2026-04-23 14:10 | -34.12312 | 151.62065 | 13623 ft | 345 kts | 103° |
| 2026-04-23 14:10 | -34.12817 | 151.64920 | 14230 ft | 349 kts | 103° |
| 2026-04-23 14:11 | -34.13322 | 151.67769 | 14854 ft | 353 kts | 103° |
| 2026-04-23 14:11 | -34.13840 | 151.70695 | 15498 ft | 356 kts | 103° |
| 2026-04-23 14:11 | -34.14354 | 151.73598 | 16129 ft | 359 kts | 103° |
| 2026-04-23 14:11 | -34.14877 | 151.76569 | 16775 ft | 361 kts | 103° |
| 2026-04-23 14:12 | -34.15403 | 151.79561 | 17412 ft | 363 kts | 103° |
| 2026-04-23 14:12 | -34.15922 | 151.82512 | 18033 ft | 365 kts | 102° |
| 2026-04-23 14:12 | -34.16448 | 151.85516 | 18667 ft | 366 kts | 102° |
| 2026-04-23 14:12 | -34.16976 | 151.88525 | 19294 ft | 368 kts | 102° |
| 2026-04-23 14:13 | -34.17501 | 151.91534 | 19909 ft | 370 kts | 103° |
| 2026-04-23 14:13 | -34.18031 | 151.94572 | 20521 ft | 371 kts | 103° |
| 2026-04-23 14:13 | -34.18565 | 151.97633 | 21121 ft | 373 kts | 103° |
| 2026-04-23 14:13 | -34.19097 | 152.00688 | 21711 ft | 375 kts | 103° |
| 2026-04-23 14:14 | -34.19703 | 152.03732 | 22285 ft | 376 kts | 108° |
| 2026-04-23 14:14 | -34.20599 | 152.06708 | 22860 ft | 378 kts | 110° |
| 2026-04-23 14:14 | -34.21451 | 152.09718 | 23449 ft | 380 kts | 110° |
| 2026-04-23 14:14 | -34.22329 | 152.12718 | 24048 ft | 382 kts | 110° |
| 2026-04-23 14:15 | -34.23198 | 152.15730 | 24659 ft | 384 kts | 110° |
| 2026-04-23 14:15 | -34.24092 | 152.18802 | 25270 ft | 387 kts | 110° |
| 2026-04-23 14:15 | -34.24971 | 152.21831 | 25854 ft | 390 kts | 110° |
| 2026-04-23 14:15 | -34.25877 | 152.24948 | 26454 ft | 392 kts | 110° |
| 2026-04-23 14:16 | -34.26786 | 152.28085 | 27042 ft | 395 kts | 111° |
| 2026-04-23 14:16 | -34.27686 | 152.31192 | 27612 ft | 397 kts | 111° |
| 2026-04-23 14:16 | -34.28604 | 152.34364 | 28173 ft | 397 kts | 111° |
| 2026-04-23 14:16 | -34.29504 | 152.37479 | 28692 ft | 397 kts | 111° |
| 2026-04-23 14:17 | -34.30413 | 152.40636 | 29196 ft | 397 kts | 111° |
| 2026-04-23 14:17 | -34.31319 | 152.43771 | 29683 ft | 398 kts | 111° |
| 2026-04-23 14:17 | -34.32237 | 152.46954 | 30159 ft | 399 kts | 111° |
| 2026-04-23 14:17 | -34.33145 | 152.50116 | 30625 ft | 401 kts | 111° |
| 2026-04-23 14:18 | -34.34063 | 152.53311 | 31032 ft | 403 kts | 111° |
| 2026-04-23 14:18 | -34.34979 | 152.56500 | 31425 ft | 405 kts | 111° |
| 2026-04-23 14:18 | -34.35903 | 152.59731 | 31818 ft | 407 kts | 111° |
| 2026-04-23 14:18 | -34.36833 | 152.62970 | 32202 ft | 409 kts | 112° |
| 2026-04-23 14:19 | -34.37764 | 152.66225 | 32576 ft | 411 kts | 111° |
| 2026-04-23 14:19 | -34.38701 | 152.69505 | 32940 ft | 414 kts | 111° |
| 2026-04-23 14:19 | -34.39650 | 152.72829 | 33290 ft | 417 kts | 111° |
| 2026-04-23 14:19 | -34.40599 | 152.76158 | 33626 ft | 419 kts | 111° |
| 2026-04-23 14:20 | -34.41558 | 152.79520 | 33953 ft | 422 kts | 111° |
| 2026-04-23 14:20 | -34.42508 | 152.82864 | 34261 ft | 425 kts | 111° |
| 2026-04-23 14:20 | -34.43480 | 152.86284 | 34552 ft | 428 kts | 111° |
| 2026-04-23 14:20 | -34.44448 | 152.89697 | 34803 ft | 431 kts | 111° |
| 2026-04-23 14:21 | -34.45436 | 152.93179 | 35026 ft | 434 kts | 111° |
| 2026-04-23 14:21 | -34.46411 | 152.96628 | 35213 ft | 438 kts | 111° |
| 2026-04-23 14:21 | -34.47407 | 153.00148 | 35368 ft | 442 kts | 111° |
| 2026-04-23 14:21 | -34.48411 | 153.03705 | 35494 ft | 446 kts | 111° |
| 2026-04-23 14:22 | -34.50435 | 153.10887 | 35630 ft | 455 kts | 111° |
| 2026-04-23 14:22 | -34.52489 | 153.18198 | 35667 ft | 463 kts | 111° |
| 2026-04-23 14:23 | -34.54570 | 153.25626 | 35913 ft | 465 kts | 111° |
| 2026-04-23 14:23 | -34.55595 | 153.29294 | 36061 ft | 465 kts | 111° |
| 2026-04-23 14:23 | -34.56639 | 153.33025 | 36213 ft | 464 kts | 111° |
| 2026-04-23 14:24 | -34.57673 | 153.36736 | 36335 ft | 465 kts | 111° |
| 2026-04-23 14:24 | -34.58715 | 153.40475 | 36495 ft | 465 kts | 111° |
| 2026-04-23 14:24 | -34.59747 | 153.44189 | 36649 ft | 464 kts | 111° |
| 2026-04-23 14:24 | -34.60781 | 153.47903 | 36816 ft | 464 kts | 111° |
| 2026-04-23 14:25 | -34.61803 | 153.51587 | 36946 ft | 465 kts | 111° |
| 2026-04-23 14:25 | -34.62830 | 153.55293 | 37116 ft | 465 kts | 111° |
| 2026-04-23 14:25 | -34.63856 | 153.59004 | 37286 ft | 464 kts | 112° |
| 2026-04-23 14:25 | -34.64886 | 153.62726 | 37354 ft | 465 kts | 112° |
| 2026-04-23 14:26 | -34.65922 | 153.66481 | 37484 ft | 466 kts | 111° |
| 2026-04-23 14:26 | -34.66948 | 153.70203 | 37620 ft | 466 kts | 111° |
| 2026-04-23 14:26 | -34.69000 | 153.77663 | 37849 ft | 466 kts | 111° |
| 2026-04-23 14:27 | -34.70026 | 153.81404 | 37990 ft | 467 kts | 111° |
| 2026-04-23 14:27 | -34.71043 | 153.85107 | 38083 ft | 467 kts | 111° |
| 2026-04-23 14:27 | -34.72067 | 153.88849 | 38201 ft | 467 kts | 111° |
| 2026-04-23 14:27 | -34.73077 | 153.92552 | 38709 ft | 456 kts | 111° |
| 2026-04-23 14:28 | -34.74067 | 153.96184 | 39139 ft | 452 kts | 112° |
| 2026-04-23 14:28 | -34.75069 | 153.99849 | 39104 ft | 456 kts | 111° |
| 2026-04-23 14:28 | -34.77070 | 154.07193 | 39210 ft | 461 kts | 111° |
| 2026-04-23 14:29 | -34.78076 | 154.10901 | 39367 ft | 461 kts | 111° |
| 2026-04-23 14:29 | -34.79062 | 154.14545 | 39424 ft | 456 kts | 112° |
| 2026-04-23 14:29 | -34.81032 | 154.21817 | 39413 ft | 454 kts | 112° |
| 2026-04-23 14:30 | -34.83020 | 154.29179 | 39408 ft | 453 kts | 112° |
| 2026-04-23 14:30 | -34.84978 | 154.36452 | 39410 ft | 452 kts | 112° |
| 2026-04-23 14:31 | -34.86924 | 154.43703 | 39411 ft | 451 kts | 111° |
| 2026-04-23 14:31 | -34.88851 | 154.50902 | 39406 ft | 450 kts | 112° |
| 2026-04-23 14:32 | -34.90785 | 154.58142 | 39412 ft | 451 kts | 112° |
| 2026-04-23 14:32 | -34.92743 | 154.65486 | 39420 ft | 460 kts | 111° |
| 2026-04-23 14:33 | -34.94725 | 154.72949 | 39431 ft | 467 kts | 111° |
| 2026-04-23 14:33 | -34.96716 | 154.80469 | 39407 ft | 472 kts | 111° |
| 2026-04-23 14:34 | -34.98724 | 154.88069 | 39417 ft | 474 kts | 111° |
| 2026-04-23 14:34 | -35.00743 | 154.95738 | 39405 ft | 475 kts | 111° |
| 2026-04-23 14:35 | -35.02747 | 155.03375 | 39431 ft | 475 kts | 111° |
| 2026-04-23 14:35 | -35.04749 | 155.11021 | 39424 ft | 475 kts | 111° |
| 2026-04-23 14:36 | -35.06750 | 155.18689 | 39399 ft | 475 kts | 111° |
| 2026-04-23 14:36 | -35.08738 | 155.26329 | 39448 ft | 475 kts | 111° |
| 2026-04-23 14:37 | -35.10742 | 155.34053 | 39413 ft | 475 kts | 111° |
| 2026-04-23 14:37 | -35.12725 | 155.41716 | 39421 ft | 476 kts | 110° |
| 2026-04-23 14:38 | -35.14706 | 155.49397 | 39431 ft | 476 kts | 111° |
| 2026-04-23 14:38 | -35.16681 | 155.57075 | 39419 ft | 476 kts | 110° |
| 2026-04-23 14:39 | -35.18658 | 155.64789 | 39398 ft | 476 kts | 110° |
| 2026-04-23 14:39 | -35.20619 | 155.72463 | 39415 ft | 476 kts | 110° |
| 2026-04-23 14:40 | -35.22583 | 155.80164 | 39415 ft | 476 kts | 110° |
| 2026-04-23 14:40 | -35.24545 | 155.87888 | 39411 ft | 476 kts | 110° |
| 2026-04-23 14:41 | -35.26493 | 155.95572 | 39400 ft | 476 kts | 110° |
| 2026-04-23 14:41 | -35.28444 | 156.03294 | 39421 ft | 476 kts | 109° |
| 2026-04-23 14:42 | -35.30394 | 156.11034 | 39414 ft | 476 kts | 109° |
| 2026-04-23 14:42 | -35.32328 | 156.18742 | 39399 ft | 476 kts | 109° |
| 2026-04-23 14:43 | -35.34256 | 156.26437 | 39409 ft | 476 kts | 109° |
| 2026-04-23 14:43 | -35.36184 | 156.34163 | 39395 ft | 476 kts | 109° |
| 2026-04-23 14:44 | -35.38111 | 156.41907 | 39437 ft | 475 kts | 109° |
| 2026-04-23 14:44 | -35.40021 | 156.49611 | 39404 ft | 474 kts | 109° |
| 2026-04-23 14:45 | -35.41924 | 156.57303 | 39416 ft | 475 kts | 109° |
| 2026-04-23 14:45 | -35.43838 | 156.65065 | 39403 ft | 475 kts | 108° |
| 2026-04-23 14:46 | -35.45728 | 156.72760 | 39432 ft | 475 kts | 108° |
| 2026-04-23 14:46 | -35.47627 | 156.80507 | 39440 ft | 474 kts | 108° |
| 2026-04-23 14:47 | -35.49511 | 156.88214 | 39426 ft | 474 kts | 108° |
| 2026-04-23 14:47 | -35.51400 | 156.95967 | 39423 ft | 474 kts | 108° |
| 2026-04-23 14:48 | -35.53273 | 157.03682 | 39405 ft | 474 kts | 108° |
| 2026-04-23 14:48 | -35.55143 | 157.11406 | 39419 ft | 474 kts | 108° |
| 2026-04-23 14:49 | -35.57013 | 157.19153 | 39409 ft | 474 kts | 108° |
| 2026-04-23 14:49 | -35.58863 | 157.26851 | 39408 ft | 473 kts | 108° |
| 2026-04-23 14:50 | -35.60727 | 157.34621 | 39441 ft | 473 kts | 108° |
| 2026-04-23 14:50 | -35.62569 | 157.42323 | 39411 ft | 473 kts | 108° |
| 2026-04-23 14:51 | -35.64406 | 157.50037 | 39441 ft | 473 kts | 108° |
| 2026-04-23 14:51 | -35.66246 | 157.57781 | 39400 ft | 473 kts | 108° |
| 2026-04-23 14:52 | -35.68081 | 157.65524 | 39419 ft | 473 kts | 107° |
| 2026-04-23 14:52 | -35.69906 | 157.73248 | 39408 ft | 473 kts | 107° |
| 2026-04-23 14:53 | -35.71733 | 157.81023 | 39416 ft | 472 kts | 107° |
| 2026-04-23 14:53 | -35.73539 | 157.88722 | 39429 ft | 471 kts | 107° |
| 2026-04-23 14:54 | -35.75349 | 157.96464 | 39413 ft | 471 kts | 107° |
| 2026-04-23 14:54 | -35.77141 | 158.04147 | 39427 ft | 471 kts | 107° |
| 2026-04-23 14:55 | -35.78714 | 158.12003 | 39416 ft | 472 kts | 103° |
| 2026-04-23 14:55 | -35.80080 | 158.19823 | 39397 ft | 471 kts | 103° |
| 2026-04-23 14:56 | -35.81439 | 158.27710 | 39407 ft | 471 kts | 103° |
| 2026-04-23 14:56 | -35.82787 | 158.35591 | 39422 ft | 471 kts | 103° |
| 2026-04-23 14:57 | -35.84125 | 158.43455 | 39424 ft | 472 kts | 103° |
| 2026-04-23 14:57 | -35.85463 | 158.51353 | 39410 ft | 473 kts | 103° |
| 2026-04-23 14:58 | -35.86805 | 158.59300 | 39414 ft | 472 kts | 103° |
| 2026-04-23 14:58 | -35.88126 | 158.67172 | 39428 ft | 473 kts | 103° |
| 2026-04-23 14:59 | -35.89446 | 158.75055 | 39429 ft | 472 kts | 103° |
| 2026-04-23 14:59 | -35.90763 | 158.82954 | 39421 ft | 472 kts | 103° |
| 2026-04-23 15:00 | -35.92082 | 158.90900 | 39431 ft | 473 kts | 103° |
| 2026-04-23 15:00 | -35.93392 | 158.98833 | 39419 ft | 473 kts | 103° |
| 2026-04-23 15:01 | -35.94692 | 159.06737 | 39416 ft | 474 kts | 103° |
| 2026-04-23 15:01 | -35.95995 | 159.14694 | 39409 ft | 473 kts | 103° |
| 2026-04-23 15:02 | -35.97293 | 159.22659 | 39425 ft | 474 kts | 103° |
| 2026-04-23 15:02 | -35.98589 | 159.30638 | 39446 ft | 474 kts | 103° |
| 2026-04-23 15:03 | -35.99879 | 159.38609 | 39444 ft | 475 kts | 103° |
| 2026-04-23 15:03 | -36.01164 | 159.46599 | 39417 ft | 476 kts | 103° |
| 2026-04-23 15:04 | -36.02447 | 159.54610 | 39416 ft | 476 kts | 103° |
| 2026-04-23 15:04 | -36.03721 | 159.62601 | 39423 ft | 476 kts | 103° |
| 2026-04-23 15:05 | -36.04989 | 159.70583 | 39435 ft | 476 kts | 102° |
| 2026-04-23 15:05 | -36.06251 | 159.78575 | 39432 ft | 477 kts | 102° |
| 2026-04-23 15:06 | -36.07511 | 159.86575 | 39420 ft | 476 kts | 102° |
| 2026-04-23 15:06 | -36.08772 | 159.94623 | 39420 ft | 477 kts | 102° |
| 2026-04-23 15:07 | -36.10026 | 160.02663 | 39434 ft | 477 kts | 102° |
| 2026-04-23 15:07 | -36.11274 | 160.10701 | 39433 ft | 478 kts | 102° |
| 2026-04-23 15:08 | -36.12512 | 160.18718 | 39426 ft | 477 kts | 102° |
| 2026-04-23 15:09 | -36.14355 | 160.30727 | 39414 ft | 475 kts | 102° |
| 2026-04-23 15:09 | -36.15578 | 160.38736 | 39396 ft | 476 kts | 102° |
| 2026-04-23 15:10 | -36.16598 | 160.45444 | 39412 ft | 476 kts | 102° |
| 2026-04-23 15:10 | -36.18014 | 160.54799 | 39423 ft | 476 kts | 102° |
| 2026-04-23 15:11 | -36.19220 | 160.62804 | 39390 ft | 476 kts | 102° |
| 2026-04-23 15:11 | -36.20425 | 160.70847 | 39419 ft | 476 kts | 101° |
| 2026-04-23 15:12 | -36.21620 | 160.78870 | 39401 ft | 475 kts | 101° |
| 2026-04-23 15:12 | -36.22808 | 160.86870 | 39386 ft | 475 kts | 101° |
| 2026-04-23 15:13 | -36.23996 | 160.94917 | 39384 ft | 475 kts | 101° |
| 2026-04-23 15:13 | -36.25173 | 161.02928 | 39394 ft | 475 kts | 101° |
| 2026-04-23 15:14 | -36.26344 | 161.10934 | 39407 ft | 475 kts | 101° |
| 2026-04-23 15:14 | -36.27520 | 161.19002 | 39423 ft | 476 kts | 101° |
| 2026-04-23 15:15 | -36.28680 | 161.27017 | 39416 ft | 475 kts | 101° |
| 2026-04-23 15:15 | -36.29836 | 161.35036 | 39431 ft | 475 kts | 101° |
| 2026-04-23 15:16 | -36.30993 | 161.43105 | 39423 ft | 474 kts | 101° |
| 2026-04-23 15:16 | -36.32138 | 161.51123 | 39418 ft | 474 kts | 101° |
| 2026-04-23 15:17 | -36.33280 | 161.59161 | 39417 ft | 475 kts | 101° |
| 2026-04-23 15:17 | -36.34409 | 161.67156 | 39435 ft | 475 kts | 101° |
| 2026-04-23 15:18 | -36.35540 | 161.75206 | 39436 ft | 475 kts | 101° |
| 2026-04-23 15:18 | -36.36662 | 161.83232 | 39412 ft | 474 kts | 101° |
| 2026-04-23 15:19 | -36.37781 | 161.91267 | 39651 ft | 469 kts | 100° |
| 2026-04-23 15:19 | -36.38327 | 161.95203 | 39815 ft | 466 kts | 100° |
| 2026-04-23 15:19 | -36.38874 | 161.99165 | 39971 ft | 464 kts | 100° |
| 2026-04-23 15:19 | -36.39420 | 162.03107 | 40114 ft | 462 kts | 100° |
| 2026-04-23 15:20 | -36.39775 | 162.05688 | 40206 ft | 461 kts | 100° |
| 2026-04-23 15:20 | -36.40489 | 162.10902 | 40383 ft | 460 kts | 100° |
| 2026-04-23 15:20 | -36.41026 | 162.14815 | 40558 ft | 459 kts | 100° |
| 2026-04-23 15:20 | -36.41553 | 162.18675 | 40720 ft | 458 kts | 100° |
| 2026-04-23 15:21 | -36.42082 | 162.22559 | 40844 ft | 457 kts | 100° |
| 2026-04-23 15:21 | -36.42613 | 162.26472 | 40955 ft | 457 kts | 100° |
| 2026-04-23 15:21 | -36.43140 | 162.30353 | 41103 ft | 456 kts | 100° |
| 2026-04-23 15:21 | -36.43663 | 162.34230 | 41222 ft | 456 kts | 100° |
| 2026-04-23 15:22 | -36.44188 | 162.38123 | 41320 ft | 457 kts | 100° |
| 2026-04-23 15:22 | -36.45225 | 162.45836 | 41379 ft | 453 kts | 100° |
| 2026-04-23 15:23 | -36.46249 | 162.53505 | 41378 ft | 453 kts | 100° |
| 2026-04-23 15:23 | -36.47277 | 162.61230 | 41416 ft | 455 kts | 100° |
| 2026-04-23 15:24 | -36.48317 | 162.69076 | 41405 ft | 464 kts | 99° |
| 2026-04-23 15:24 | -36.49364 | 162.77046 | 41404 ft | 472 kts | 99° |
| 2026-04-23 15:25 | -36.50418 | 162.85095 | 41409 ft | 477 kts | 99° |
| 2026-04-23 15:25 | -36.51300 | 162.91875 | 41382 ft | 480 kts | 99° |
| 2026-04-23 15:26 | -36.52539 | 163.01436 | 41403 ft | 483 kts | 99° |
| 2026-04-23 15:26 | -36.53606 | 163.09747 | 41395 ft | 485 kts | 99° |
| 2026-04-23 15:27 | -36.54660 | 163.17986 | 41390 ft | 487 kts | 99° |
| 2026-04-23 15:27 | -36.55718 | 163.26309 | 41410 ft | 487 kts | 99° |
| 2026-04-23 15:28 | -36.56765 | 163.34599 | 41369 ft | 489 kts | 99° |
| 2026-04-23 15:28 | -36.57809 | 163.42920 | 41412 ft | 489 kts | 100° |
| 2026-04-23 15:29 | -36.58853 | 163.51270 | 41420 ft | 489 kts | 100° |
| 2026-04-23 15:29 | -36.59888 | 163.59613 | 41396 ft | 490 kts | 100° |
| 2026-04-23 15:30 | -36.60923 | 163.68001 | 41412 ft | 490 kts | 99° |
| 2026-04-23 15:30 | -36.61949 | 163.76353 | 41414 ft | 491 kts | 99° |
| 2026-04-23 15:31 | -36.62974 | 163.84769 | 41411 ft | 492 kts | 99° |
| 2026-04-23 15:31 | -36.63988 | 163.93143 | 41395 ft | 492 kts | 99° |
| 2026-04-23 15:32 | -36.65002 | 164.01555 | 41373 ft | 492 kts | 99° |
| 2026-04-23 15:32 | -36.66010 | 164.09966 | 41383 ft | 493 kts | 99° |
| 2026-04-23 15:33 | -36.67010 | 164.18381 | 41377 ft | 492 kts | 99° |
| 2026-04-23 15:33 | -36.68006 | 164.26788 | 41391 ft | 492 kts | 99° |
| 2026-04-23 15:34 | -36.68993 | 164.35194 | 41384 ft | 493 kts | 99° |
| 2026-04-23 15:34 | -36.69976 | 164.43607 | 41379 ft | 493 kts | 99° |
| 2026-04-23 15:35 | -36.70956 | 164.52037 | 41377 ft | 493 kts | 99° |
| 2026-04-23 15:35 | -36.71926 | 164.60466 | 41404 ft | 494 kts | 99° |
| 2026-04-23 15:36 | -36.72899 | 164.68944 | 41365 ft | 494 kts | 99° |
| 2026-04-23 15:36 | -36.73859 | 164.77385 | 41368 ft | 495 kts | 99° |
| 2026-04-23 15:37 | -36.74817 | 164.85846 | 41382 ft | 495 kts | 99° |
| 2026-04-23 15:37 | -36.75614 | 164.92940 | 41379 ft | 495 kts | 99° |
| 2026-04-23 15:38 | -36.76715 | 165.02799 | 41352 ft | 496 kts | 99° |
| 2026-04-23 15:38 | -36.77660 | 165.11305 | 41355 ft | 496 kts | 99° |
| 2026-04-23 15:39 | -36.78591 | 165.19763 | 41385 ft | 496 kts | 99° |
| 2026-04-23 15:39 | -36.79526 | 165.28282 | 41370 ft | 496 kts | 99° |
| 2026-04-23 15:40 | -36.80447 | 165.36787 | 41374 ft | 497 kts | 99° |
| 2026-04-23 15:40 | -36.81368 | 165.45320 | 41369 ft | 497 kts | 99° |
| 2026-04-23 15:41 | -36.82280 | 165.53815 | 41343 ft | 497 kts | 99° |
| 2026-04-23 15:41 | -36.83187 | 165.62346 | 41368 ft | 497 kts | 99° |
| 2026-04-23 15:42 | -36.84089 | 165.70857 | 41338 ft | 497 kts | 98° |
| 2026-04-23 15:42 | -36.84988 | 165.79430 | 41353 ft | 498 kts | 98° |
| 2026-04-23 15:43 | -36.85879 | 165.87976 | 41354 ft | 498 kts | 98° |
| 2026-04-23 15:43 | -36.86765 | 165.96529 | 41346 ft | 499 kts | 98° |
| 2026-04-23 15:44 | -36.87645 | 166.05067 | 41337 ft | 500 kts | 98° |
| 2026-04-23 15:44 | -36.88515 | 166.13629 | 41345 ft | 500 kts | 98° |
| 2026-04-23 15:45 | -36.89389 | 166.22211 | 41337 ft | 499 kts | 98° |
| 2026-04-23 15:45 | -36.90250 | 166.30786 | 41338 ft | 499 kts | 98° |
| 2026-04-23 15:46 | -36.91108 | 166.39388 | 41338 ft | 500 kts | 98° |
| 2026-04-23 15:46 | -36.91959 | 166.47972 | 41342 ft | 500 kts | 98° |
| 2026-04-23 15:47 | -36.92804 | 166.56566 | 41352 ft | 500 kts | 98° |
| 2026-04-23 15:47 | -36.93641 | 166.65158 | 41341 ft | 501 kts | 98° |
| 2026-04-23 15:48 | -36.94479 | 166.73790 | 41334 ft | 501 kts | 98° |
| 2026-04-23 15:48 | -36.95308 | 166.82419 | 41329 ft | 502 kts | 97° |
| 2026-04-23 15:49 | -36.96128 | 166.91014 | 41321 ft | 502 kts | 98° |
| 2026-04-23 15:49 | -36.96952 | 166.99698 | 41310 ft | 502 kts | 97° |
| 2026-04-23 15:50 | -36.97760 | 167.08330 | 41315 ft | 502 kts | 97° |
| 2026-04-23 15:50 | -36.98561 | 167.16937 | 41325 ft | 502 kts | 97° |
| 2026-04-23 15:51 | -36.99361 | 167.25617 | 41333 ft | 503 kts | 98° |
| 2026-04-23 15:51 | -37.00154 | 167.34251 | 41352 ft | 503 kts | 97° |
| 2026-04-23 15:52 | -37.00941 | 167.42899 | 41337 ft | 504 kts | 97° |
| 2026-04-23 15:52 | -37.01725 | 167.51590 | 41332 ft | 504 kts | 97° |
| 2026-04-23 15:53 | -37.02501 | 167.60298 | 41347 ft | 505 kts | 97° |
| 2026-04-23 15:53 | -37.03272 | 167.68983 | 41333 ft | 505 kts | 97° |
| 2026-04-23 15:54 | -37.04037 | 167.77690 | 41335 ft | 506 kts | 97° |
| 2026-04-23 15:54 | -37.04796 | 167.86392 | 41339 ft | 506 kts | 97° |
| 2026-04-23 15:55 | -37.05549 | 167.95103 | 41327 ft | 506 kts | 97° |
| 2026-04-23 15:55 | -37.06296 | 168.03821 | 41331 ft | 506 kts | 96° |
| 2026-04-23 15:56 | -37.07035 | 168.12541 | 41328 ft | 506 kts | 97° |
| 2026-04-23 15:56 | -37.07772 | 168.21278 | 41326 ft | 506 kts | 97° |
| 2026-04-23 15:57 | -37.08501 | 168.30032 | 41323 ft | 507 kts | 97° |
| 2026-04-23 15:57 | -37.09226 | 168.38789 | 41323 ft | 507 kts | 97° |
| 2026-04-23 15:58 | -37.09944 | 168.47557 | 41321 ft | 508 kts | 97° |
| 2026-04-23 15:58 | -37.10653 | 168.56299 | 41318 ft | 508 kts | 97° |
| 2026-04-23 15:59 | -37.11362 | 168.65108 | 41324 ft | 508 kts | 96° |
| 2026-04-23 15:59 | -37.12061 | 168.73901 | 41311 ft | 509 kts | 96° |
| 2026-04-23 16:00 | -37.12755 | 168.82674 | 41315 ft | 508 kts | 96° |
| 2026-04-23 16:00 | -37.13441 | 168.91444 | 41324 ft | 508 kts | 96° |
| 2026-04-23 16:01 | -37.14118 | 169.00207 | 41309 ft | 509 kts | 96° |
| 2026-04-23 16:01 | -37.14796 | 169.09044 | 41316 ft | 509 kts | 96° |
| 2026-04-23 16:02 | -37.15462 | 169.17824 | 41318 ft | 509 kts | 96° |
| 2026-04-23 16:02 | -37.16122 | 169.26607 | 41307 ft | 510 kts | 96° |
| 2026-04-23 16:03 | -37.16781 | 169.35467 | 41315 ft | 510 kts | 96° |
| 2026-04-23 16:03 | -37.17429 | 169.44241 | 41315 ft | 510 kts | 96° |
| 2026-04-23 16:04 | -37.18069 | 169.53047 | 41312 ft | 510 kts | 96° |
| 2026-04-23 16:04 | -37.18706 | 169.61858 | 41313 ft | 509 kts | 96° |
| 2026-04-23 16:05 | -37.19231 | 169.69217 | 41320 ft | 509 kts | 95° |
| 2026-04-23 16:05 | -37.19960 | 169.79532 | 41300 ft | 510 kts | 95° |
| 2026-04-23 16:06 | -37.20576 | 169.88348 | 41304 ft | 510 kts | 95° |
| 2026-04-23 16:06 | -37.21186 | 169.97180 | 41309 ft | 510 kts | 95° |
| 2026-04-23 16:07 | -37.21790 | 170.06000 | 41300 ft | 510 kts | 95° |
| 2026-04-23 16:07 | -37.22389 | 170.14864 | 41310 ft | 510 kts | 95° |
| 2026-04-23 16:08 | -37.22979 | 170.23703 | 41302 ft | 511 kts | 95° |
| 2026-04-23 16:08 | -37.23561 | 170.32503 | 41305 ft | 511 kts | 95° |
| 2026-04-23 16:09 | -37.24140 | 170.41354 | 41307 ft | 511 kts | 95° |
| 2026-04-23 16:09 | -37.24715 | 170.50236 | 41304 ft | 511 kts | 95° |
| 2026-04-23 16:10 | -37.25280 | 170.59128 | 41302 ft | 511 kts | 95° |
| 2026-04-23 16:10 | -37.25526 | 170.68147 | 41305 ft | 511 kts | 88° |
| 2026-04-23 16:11 | -37.25362 | 170.77010 | 41297 ft | 511 kts | 88° |
| 2026-04-23 16:11 | -37.25132 | 170.85872 | 41285 ft | 512 kts | 87° |
| 2026-04-23 16:12 | -37.24879 | 170.94810 | 41289 ft | 512 kts | 87° |
| 2026-04-23 16:12 | -37.24616 | 171.03683 | 41290 ft | 512 kts | 87° |
| 2026-04-23 16:13 | -37.24347 | 171.12558 | 41287 ft | 512 kts | 87° |
| 2026-04-23 16:13 | -37.23930 | 171.25915 | 41294 ft | 512 kts | 87° |
| 2026-04-23 16:14 | -37.23645 | 171.34859 | 41286 ft | 513 kts | 86° |
| 2026-04-23 16:14 | -37.23349 | 171.43784 | 41285 ft | 513 kts | 86° |
| 2026-04-23 16:15 | -37.23048 | 171.52670 | 41298 ft | 513 kts | 86° |
| 2026-04-23 16:15 | -37.22742 | 171.61566 | 41300 ft | 513 kts | 86° |
| 2026-04-23 16:16 | -37.22427 | 171.70529 | 41293 ft | 514 kts | 86° |
| 2026-04-23 16:16 | -37.22105 | 171.79445 | 41285 ft | 513 kts | 86° |
| 2026-04-23 16:17 | -37.21780 | 171.88315 | 41282 ft | 514 kts | 86° |
| 2026-04-23 16:17 | -37.21445 | 171.97284 | 41280 ft | 514 kts | 85° |
| 2026-04-23 16:18 | -37.21101 | 172.06215 | 41293 ft | 514 kts | 86° |
| 2026-04-23 16:18 | -37.20754 | 172.15163 | 41289 ft | 515 kts | 85° |
| 2026-04-23 16:19 | -37.20399 | 172.24068 | 41281 ft | 515 kts | 85° |
| 2026-04-23 16:19 | -37.20036 | 172.33043 | 41276 ft | 515 kts | 85° |
| 2026-04-23 16:20 | -37.19668 | 172.41966 | 41283 ft | 515 kts | 85° |
| 2026-04-23 16:20 | -37.19292 | 172.50911 | 41289 ft | 515 kts | 85° |
| 2026-04-23 16:21 | -37.18909 | 172.59871 | 41298 ft | 516 kts | 85° |
| 2026-04-23 16:21 | -37.18518 | 172.68872 | 40880 ft | 524 kts | 85° |
| 2026-04-23 16:22 | -37.18318 | 172.73421 | 40337 ft | 521 kts | 85° |
| 2026-04-23 16:22 | -37.18119 | 172.77890 | 39815 ft | 511 kts | 85° |
| 2026-04-23 16:22 | -37.17923 | 172.82317 | 39267 ft | 502 kts | 84° |
| 2026-04-23 16:22 | -37.17723 | 172.86685 | 38751 ft | 507 kts | 84° |
| 2026-04-23 16:23 | -37.17523 | 172.91080 | 38240 ft | 507 kts | 84° |
| 2026-04-23 16:23 | -37.17321 | 172.95493 | 37570 ft | 509 kts | 84° |
| 2026-04-23 16:23 | -37.17121 | 172.99878 | 36951 ft | 509 kts | 84° |
| 2026-04-23 16:23 | -37.16917 | 173.04294 | 36302 ft | 498 kts | 84° |
| 2026-04-23 16:24 | -37.16718 | 173.08543 | 35777 ft | 485 kts | 83° |
| 2026-04-23 16:24 | -37.16519 | 173.12709 | 35179 ft | 475 kts | 83° |
| 2026-04-23 16:24 | -37.16324 | 173.16782 | 34701 ft | 474 kts | 83° |
| 2026-04-23 16:24 | -37.16116 | 173.20987 | 34318 ft | 492 kts | 83° |
| 2026-04-23 16:25 | -37.15911 | 173.25220 | 33828 ft | 491 kts | 83° |
| 2026-04-23 16:25 | -37.15704 | 173.29486 | 33306 ft | 487 kts | 83° |
| 2026-04-23 16:25 | -37.15498 | 173.33717 | 32900 ft | 477 kts | 83° |
| 2026-04-23 16:25 | -37.15297 | 173.37799 | 32527 ft | 468 kts | 82° |
| 2026-04-23 16:26 | -37.15093 | 173.41872 | 32231 ft | 469 kts | 82° |
| 2026-04-23 16:26 | -37.14697 | 173.45903 | 31883 ft | 467 kts | 75° |
| 2026-04-23 16:26 | -37.14059 | 173.49875 | 31444 ft | 461 kts | 75° |
| 2026-04-23 16:26 | -37.13459 | 173.53754 | 31039 ft | 452 kts | 74° |
| 2026-04-23 16:27 | -37.12844 | 173.57546 | 30574 ft | 442 kts | 74° |
| 2026-04-23 16:27 | -37.12232 | 173.61305 | 29946 ft | 435 kts | 73° |
| 2026-04-23 16:27 | -37.11618 | 173.65010 | 29324 ft | 441 kts | 73° |
| 2026-04-23 16:27 | -37.11000 | 173.68753 | 28777 ft | 431 kts | 73° |
| 2026-04-23 16:28 | -37.10389 | 173.72458 | 28127 ft | 420 kts | 73° |
| 2026-04-23 16:28 | -37.09808 | 173.75963 | 27516 ft | 410 kts | 72° |
| 2026-04-23 16:28 | -37.09230 | 173.79433 | 26880 ft | 405 kts | 72° |
| 2026-04-23 16:28 | -37.08628 | 173.82999 | 26384 ft | 429 kts | 72° |
| 2026-04-23 16:29 | -37.08013 | 173.86699 | 26005 ft | 426 kts | 73° |
| 2026-04-23 16:29 | -37.07402 | 173.90332 | 25615 ft | 425 kts | 73° |
| 2026-04-23 16:29 | -37.06800 | 173.93959 | 25226 ft | 424 kts | 73° |
| 2026-04-23 16:29 | -37.06203 | 173.97517 | 24839 ft | 420 kts | 73° |
| 2026-04-23 16:30 | -37.05596 | 174.01129 | 24437 ft | 414 kts | 72° |
| 2026-04-23 16:30 | -37.05001 | 174.04648 | 24046 ft | 414 kts | 73° |
| 2026-04-23 16:30 | -37.04400 | 174.08206 | 23610 ft | 410 kts | 73° |
| 2026-04-23 16:30 | -37.03808 | 174.11693 | 22895 ft | 407 kts | 73° |
| 2026-04-23 16:31 | -37.03234 | 174.15080 | 22161 ft | 396 kts | 73° |
| 2026-04-23 16:31 | -37.02675 | 174.18379 | 21413 ft | 387 kts | 73° |
| 2026-04-23 16:31 | -37.02119 | 174.21648 | 20672 ft | 389 kts | 73° |
| 2026-04-23 16:31 | -37.01547 | 174.24971 | 19965 ft | 391 kts | 73° |
| 2026-04-23 16:32 | -37.00991 | 174.28262 | 19155 ft | 382 kts | 73° |
| 2026-04-23 16:32 | -37.00439 | 174.31464 | 18277 ft | 374 kts | 73° |
| 2026-04-23 16:32 | -36.99908 | 174.34590 | 17383 ft | 369 kts | 73° |
| 2026-04-23 16:32 | -36.99376 | 174.37674 | 16551 ft | 361 kts | 73° |
| 2026-04-23 16:33 | -36.98852 | 174.40724 | 15841 ft | 352 kts | 73° |
| 2026-04-23 16:33 | -36.98347 | 174.43658 | 15095 ft | 345 kts | 73° |
| 2026-04-23 16:33 | -36.97796 | 174.46524 | 14312 ft | 339 kts | 71° |
| 2026-04-23 16:33 | -36.97185 | 174.49355 | 13501 ft | 335 kts | 72° |
| 2026-04-23 16:34 | -36.96603 | 174.52130 | 12701 ft | 331 kts | 72° |
| 2026-04-23 16:34 | -36.96020 | 174.54895 | 12042 ft | 323 kts | 72° |
| 2026-04-23 16:34 | -36.95457 | 174.57559 | 11410 ft | 317 kts | 72° |
| 2026-04-23 16:34 | -36.94906 | 174.60173 | 10750 ft | 311 kts | 72° |
| 2026-04-23 16:35 | -36.94353 | 174.62781 | 10085 ft | 306 kts | 72° |
| 2026-04-23 16:35 | -36.93816 | 174.65312 | 9472 ft | 301 kts | 72° |
| 2026-04-23 16:35 | -36.93304 | 174.67723 | 8859 ft | 293 kts | 72° |
| 2026-04-23 16:35 | -36.92797 | 174.70114 | 8147 ft | 283 kts | 73° |
| 2026-04-23 16:36 | -36.92300 | 174.72450 | 7676 ft | 276 kts | 73° |
| 2026-04-23 16:36 | -36.91814 | 174.74733 | 7265 ft | 267 kts | 73° |
| 2026-04-23 16:36 | -36.91344 | 174.76941 | 6885 ft | 258 kts | 73° |
| 2026-04-23 16:36 | -36.90886 | 174.79083 | 6482 ft | 252 kts | 73° |
| 2026-04-23 16:37 | -36.90447 | 174.81151 | 6200 ft | 242 kts | 73° |
| 2026-04-23 16:37 | -36.90022 | 174.83142 | 5906 ft | 233 kts | 73° |
| 2026-04-23 16:37 | -36.89605 | 174.85095 | 5557 ft | 227 kts | 74° |
| 2026-04-23 16:37 | -36.89199 | 174.86984 | 5298 ft | 221 kts | 73° |
| 2026-04-23 16:38 | -36.88810 | 174.88805 | 5030 ft | 217 kts | 74° |
| 2026-04-23 16:38 | -36.88425 | 174.90596 | 4728 ft | 211 kts | 75° |
| 2026-04-23 16:38 | -36.88077 | 174.92362 | 4526 ft | 204 kts | 76° |
| 2026-04-23 16:38 | -36.87732 | 174.94083 | 4377 ft | 209 kts | 75° |
| 2026-04-23 16:39 | -36.87381 | 174.95828 | 4215 ft | 204 kts | 75° |
| 2026-04-23 16:39 | -36.87044 | 174.97513 | 4015 ft | 197 kts | 75° |
| 2026-04-23 16:39 | -36.86695 | 174.99194 | 3884 ft | 213 kts | 75° |
| 2026-04-23 16:39 | -36.86335 | 175.01080 | 3895 ft | 227 kts | 83° |
| 2026-04-23 16:40 | -36.86532 | 175.02957 | 3596 ft | 214 kts | 113° |
| 2026-04-23 16:40 | -36.87457 | 175.04318 | 3357 ft | 201 kts | 135° |
| 2026-04-23 16:40 | -36.88566 | 175.05255 | 3211 ft | 186 kts | 142° |
| 2026-04-23 16:40 | -36.89657 | 175.06009 | 3014 ft | 172 kts | 143° |
| 2026-04-23 16:41 | -36.90661 | 175.06706 | 2884 ft | 154 kts | 143° |
| 2026-04-23 16:41 | -36.91649 | 175.07080 | 2897 ft | 158 kts | 178° |
| 2026-04-23 16:41 | -36.92820 | 175.06482 | 3157 ft | 198 kts | 205° |
| 2026-04-23 16:41 | -36.93980 | 175.05444 | 2901 ft | 206 kts | 220° |
| 2026-04-23 16:42 | -36.94620 | 175.03957 | 2917 ft | 186 kts | 258° |
| 2026-04-23 16:42 | -36.94773 | 175.02454 | 2940 ft | 174 kts | 263° |
| 2026-04-23 16:42 | -36.94967 | 175.00807 | 3118 ft | 198 kts | 253° |
| 2026-04-23 16:42 | -36.95428 | 174.99214 | 3001 ft | 187 kts | 245° |
| 2026-04-23 16:43 | -36.95863 | 174.97781 | 2890 ft | 165 kts | 249° |
| 2026-04-23 16:43 | -36.96221 | 174.96443 | 2629 ft | 157 kts | 248° |
| 2026-04-23 16:43 | -36.96614 | 174.95085 | 2578 ft | 180 kts | 246° |
| 2026-04-23 16:43 | -36.97026 | 174.93613 | 2388 ft | 176 kts | 247° |
| 2026-04-23 16:44 | -36.97413 | 174.92201 | 2089 ft | 165 kts | 248° |
| 2026-04-23 16:44 | -36.97776 | 174.90894 | 1816 ft | 155 kts | 245° |
| 2026-04-23 16:44 | -36.98124 | 174.89659 | 1579 ft | 148 kts | 246° |
| 2026-04-23 16:44 | -36.98487 | 174.88377 | 1541 ft | 155 kts | 246° |
| 2026-04-23 16:45 | -36.98837 | 174.87146 | 1277 ft | 149 kts | 245° |
| 2026-04-23 16:45 | -36.99169 | 174.85948 | 1004 ft | 140 kts | 247° |
| 2026-04-23 16:45 | -36.99470 | 174.84817 | 780 ft | 139 kts | 246° |
| 2026-04-23 16:45 | -36.99815 | 174.83603 | 739 ft | 150 kts | 246° |
| 2026-04-23 16:46 | -37.00165 | 174.82396 | 435 ft | 142 kts | 247° |
| 2026-04-23 16:46 | -37.00464 | 174.81280 | 193 ft | 131 kts | 246° |
| 2026-04-23 16:46 | -37.00776 | 174.80153 | 64 ft | 142 kts | 243° |
| 2026-04-23 16:46 | -37.01079 | 174.79105 | 40 ft | 151 kts | 250° |
| 2026-04-23 16:47 | -37.01093 | 174.79018 | 40 ft | 0 kts | 250° |
| 2026-04-23 16:47 | -37.01212 | 174.78587 | 41 ft | 0 kts | 250° |
| 2026-04-23 16:47 | -37.01245 | 174.78474 | 38 ft | 13 kts | 248° |
| 2026-04-23 16:48 | -37.01257 | 174.78432 | 41 ft | 0 kts | 241° |
| 2026-04-23 16:48 | -37.01255 | 174.78410 | 38 ft | 7 kts | 278° |
| 2026-04-23 16:48 | -37.01246 | 174.78310 | 37 ft | 14 kts | 275° |
| 2026-04-23 16:49 | -37.01236 | 174.78229 | 38 ft | 14 kts | 279° |
| 2026-04-23 16:49 | -37.01221 | 174.78126 | 40 ft | 3 kts | 287° |
| 2026-04-23 16:49 | -37.01210 | 174.78108 | 40 ft | 2 kts | 320° |
| 2026-04-23 16:49 | -37.01177 | 174.78096 | 38 ft | 7 kts | 5° |
| 2026-04-23 16:50 | -37.01150 | 174.78125 | 37 ft | 5 kts | 64° |
| 2026-04-23 16:50 | -37.01129 | 174.78198 | 34 ft | 11 kts | 70° |
| 2026-04-23 16:50 | -37.01101 | 174.78299 | 29 ft | 4 kts | 69° |
| 2026-04-23 16:50 | -37.01078 | 174.78345 | 26 ft | 6 kts | 45° |
| 2026-04-23 16:51 | -37.01032 | 174.78374 | 23 ft | 8 kts | 9° |
| 2026-04-23 16:51 | -37.00975 | 174.78369 | 22 ft | 9 kts | 354° |
| 2026-04-23 16:51 | -37.00894 | 174.78368 | 22 ft | 12 kts | 2° |
| 2026-04-23 16:51 | -37.00828 | 174.78374 | 27 ft | 5 kts | 4° |
| 2026-04-23 16:52 | -37.00814 | 174.78375 | 28 ft | 0 kts | 1° |
| 2026-04-23 16:52 | -37.00806 | 174.78374 | 29 ft | 2 kts | 344° |
| 2026-04-23 16:52 | -37.00794 | 174.78352 | 32 ft | 1 kts | 296° |
| 2026-04-23 16:52 | -37.00790 | 174.78343 | 33 ft | 1 kts | 295° |
| 2026-04-23 16:53 | -37.00789 | 174.78340 | 33 ft | 0 kts | 294° |
| 2026-04-23 16:53 | -37.00782 | 174.78323 | 36 ft | 7 kts | 296° |
| 2026-04-23 16:53 | -37.00764 | 174.78281 | 39 ft | 2 kts | 297° |
| 2026-04-23 16:53 | -37.00763 | 174.78278 | 39 ft | 0 kts | 298° |